Time;durP1;ratioP1;P1;durP2;ratioP2;P2;SDS_P1;SDS_P2;PMS_P1;PMS_P2;Temp;Humidity;BMP_temperature;BMP_pressure;BME280_temperature;BME280_humidity;BME280_pressure;Samples;Min_cycle;Max_cycle;Signal;HPM_P1;HPM_P2
2022/11/20 00:02:27;;;;;;;25.73;18.27;;;5.20;99.90;;;;;;6178642;28;20931;-60
2022/11/20 00:05:33;;;;;;;27.13;18.30;;;5.20;99.90;;;;;;6177951;28;20548;-60
2022/11/20 00:08:38;;;;;;;23.83;17.83;;;5.30;99.90;;;;;;6169882;28;20582;-60
2022/11/20 00:11:41;;;;;;;25.00;17.80;;;5.30;99.90;;;;;;6178249;28;20458;-60
2022/11/20 00:14:44;;;;;;;26.17;17.93;;;5.40;99.90;;;;;;6178630;28;20474;-60
2022/11/20 00:17:47;;;;;;;32.43;19.67;;;5.40;99.90;;;;;;6178522;28;20460;-60
2022/11/20 00:20:50;;;;;;;26.87;19.03;;;5.40;99.90;;;;;;6178289;28;20914;-60
2022/11/20 00:23:56;;;;;;;26.00;17.83;;;5.40;99.90;;;;;;6177899;28;20866;-60
2022/11/20 00:26:59;;;;;;;23.80;16.80;;;5.40;99.90;;;;;;6178549;28;20481;-60
2022/11/20 00:30:02;;;;;;;21.43;14.93;;;5.40;99.90;;;;;;6177643;28;20496;-60
2022/11/20 00:33:06;;;;;;;22.27;15.70;;;5.50;99.90;;;;;;6177628;28;20474;-60
2022/11/20 00:36:11;;;;;;;20.80;15.10;;;5.50;99.90;;;;;;6177749;28;20466;-61
2022/11/20 00:39:15;;;;;;;19.23;13.30;;;5.50;99.90;;;;;;6177905;28;20484;-61
2022/11/20 00:42:18;;;;;;;19.37;14.30;;;5.50;99.90;;;;;;6177694;28;20513;-61
2022/11/20 00:45:21;;;;;;;19.17;14.00;;;5.50;99.90;;;;;;6178061;28;20478;-59
2022/11/20 00:48:25;;;;;;;19.47;13.27;;;5.60;99.90;;;;;;6178152;28;20508;-59
2022/11/20 00:51:28;;;;;;;17.43;12.63;;;5.60;99.90;;;;;;6177276;28;20860;-60
2022/11/20 00:54:33;;;;;;;20.40;13.87;;;5.60;99.90;;;;;;6177362;28;20474;-60
2022/11/20 00:57:36;;;;;;;22.63;14.13;;;5.60;99.90;;;;;;6177121;28;20485;-60
2022/11/20 01:00:39;;;;;;;20.47;14.97;;;5.60;99.90;;;;;;6178648;28;20801;-59
2022/11/20 01:03:44;;;;;;;22.90;16.80;;;5.60;99.90;;;;;;6191808;28;20562;-60
2022/11/20 01:06:47;;;;;;;22.83;16.90;;;5.50;99.90;;;;;;6189148;28;20790;-59
2022/11/20 01:09:52;;;;;;;24.40;17.40;;;5.40;99.90;;;;;;6180460;28;20540;-59
2022/11/20 01:16:13;;;;;;;27.67;19.60;;;5.30;99.90;;;;;;6197991;28;20544;-60
2022/11/20 01:19:20;;;;;;;30.07;18.30;;;5.30;99.90;;;;;;6201379;28;20469;-60
2022/11/20 01:22:24;;;;;;;27.90;17.77;;;5.20;99.90;;;;;;6201224;28;20465;-60
2022/11/20 01:25:28;;;;;;;22.43;16.67;;;5.10;99.90;;;;;;6201252;28;20477;-60
2022/11/20 01:28:32;;;;;;;28.33;19.47;;;5.10;99.90;;;;;;6201115;28;20484;-60
2022/11/20 01:31:37;;;;;;;29.10;18.70;;;5.10;99.90;;;;;;6201116;28;20508;-60
2022/11/20 01:34:40;;;;;;;25.10;17.33;;;5.10;99.90;;;;;;6189796;28;20821;-59
2022/11/20 01:37:43;;;;;;;22.97;17.90;;;5.10;99.90;;;;;;6199144;28;20484;-59
2022/11/20 01:40:54;;;;;;;24.57;18.07;;;5.20;99.90;;;;;;6200989;28;20477;-59
2022/11/20 01:43:57;;;;;;;25.47;17.30;;;5.30;99.90;;;;;;6200453;28;21007;-60
2022/11/20 01:47:05;;;;;;;26.93;16.27;;;5.30;99.90;;;;;;6179160;28;20490;-60
2022/11/20 01:50:15;;;;;;;27.33;17.63;;;5.30;99.90;;;;;;6189380;28;20543;-59
2022/11/20 01:53:22;;;;;;;25.17;18.40;;;5.30;99.90;;;;;;6200789;28;20848;-60
2022/11/20 01:56:28;;;;;;;23.93;17.63;;;5.30;99.90;;;;;;6189459;28;20478;-59
2022/11/20 01:59:31;;;;;;;24.67;16.50;;;5.30;99.90;;;;;;6181292;28;20473;-59
2022/11/20 02:02:35;;;;;;;25.00;18.73;;;5.30;99.90;;;;;;6172346;28;20459;-60
2022/11/20 02:05:43;;;;;;;21.40;15.93;;;5.30;99.90;;;;;;6177851;28;20492;-59
2022/11/20 02:08:46;;;;;;;28.13;19.47;;;5.40;99.90;;;;;;6180905;28;20485;-59
2022/11/20 02:11:51;;;;;;;26.27;18.00;;;5.40;99.90;;;;;;6165948;28;20541;-59
2022/11/20 02:14:53;;;;;;;25.00;16.73;;;5.40;99.90;;;;;;6156934;28;20474;-59
2022/11/20 02:17:56;;;;;;;23.40;16.20;;;5.50;99.90;;;;;;6158333;28;20882;-59
2022/11/20 02:21:06;;;;;;;20.87;15.70;;;5.50;99.90;;;;;;6168562;28;20485;-59
2022/11/20 02:24:14;;;;;;;21.17;15.93;;;5.50;99.90;;;;;;6164794;28;20477;-59
2022/11/20 02:27:18;;;;;;;22.73;16.27;;;5.50;99.90;;;;;;6173720;28;20485;-59
2022/11/20 02:30:21;;;;;;;19.77;14.50;;;5.60;99.90;;;;;;6166598;28;20471;-60
2022/11/20 02:33:25;;;;;;;20.33;15.03;;;5.60;99.90;;;;;;6161273;28;20486;-59
2022/11/20 02:36:31;;;;;;;20.00;14.57;;;5.60;99.90;;;;;;6157398;28;20483;-61
2022/11/20 02:39:36;;;;;;;20.20;13.30;;;5.60;99.90;;;;;;6180603;28;20474;-59
2022/11/20 02:42:39;;;;;;;17.40;14.90;;;5.70;99.90;;;;;;6180712;28;20477;-60
2022/11/20 02:45:42;;;;;;;21.03;14.17;;;5.70;99.90;;;;;;6180772;28;20485;-59
2022/11/20 02:48:45;;;;;;;18.93;13.60;;;5.60;99.90;;;;;;6180516;28;20478;-60
2022/11/20 02:51:48;;;;;;;15.03;11.60;;;5.50;99.90;;;;;;6180262;28;20477;-60
2022/11/20 02:54:53;;;;;;;16.70;12.70;;;5.60;99.90;;;;;;6179993;28;20481;-60
2022/11/20 02:57:56;;;;;;;14.57;12.07;;;5.60;99.90;;;;;;6180698;28;20524;-59
2022/11/20 03:00:59;;;;;;;20.53;14.03;;;5.60;99.90;;;;;;6180146;28;20474;-59
2022/11/20 03:04:03;;;;;;;13.87;10.83;;;5.60;99.90;;;;;;6180128;28;20481;-60
2022/11/20 03:07:06;;;;;;;17.97;13.37;;;5.60;99.90;;;;;;6180090;28;20492;-61
2022/11/20 03:10:11;;;;;;;22.53;13.77;;;5.50;99.90;;;;;;6180213;28;20481;-61
2022/11/20 03:13:14;;;;;;;19.43;13.60;;;5.50;99.90;;;;;;6180034;28;20478;-61
2022/11/20 03:16:19;;;;;;;13.77;10.47;;;5.50;99.90;;;;;;6180081;28;20470;-61
2022/11/20 03:19:22;;;;;;;19.10;12.10;;;5.60;99.90;;;;;;6179867;28;20493;-61
2022/11/20 03:22:26;;;;;;;12.67;10.30;;;5.60;99.90;;;;;;6170970;28;20589;-61
2022/11/20 03:25:30;;;;;;;16.97;11.60;;;5.50;99.90;;;;;;6179077;28;20484;-61
2022/11/20 03:28:33;;;;;;;15.03;11.30;;;5.50;99.90;;;;;;6179694;28;20604;-61
2022/11/20 03:31:40;;;;;;;15.00;11.63;;;5.60;99.90;;;;;;6179441;28;20989;-61
2022/11/20 03:34:43;;;;;;;13.70;10.80;;;5.60;99.90;;;;;;6179553;28;20827;-59
2022/11/20 03:37:46;;;;;;;13.50;10.90;;;5.60;99.90;;;;;;6176026;28;20493;-59
2022/11/20 03:40:51;;;;;;;19.03;12.50;;;5.60;99.90;;;;;;6179337;28;20482;-60
2022/11/20 03:43:55;;;;;;;13.40;10.13;;;5.50;99.90;;;;;;6179110;28;20548;-60
2022/11/20 03:46:58;;;;;;;14.10;10.60;;;5.60;99.90;;;;;;6179120;28;20474;-60
2022/11/20 03:50:01;;;;;;;16.70;10.70;;;5.60;99.90;;;;;;6179217;28;20493;-60
2022/11/20 03:53:04;;;;;;;15.77;11.87;;;5.70;99.90;;;;;;6178933;28;20485;-60
2022/11/20 03:56:10;;;;;;;16.80;12.00;;;5.70;99.90;;;;;;6179070;28;20493;-60
2022/11/20 03:59:13;;;;;;;16.40;11.70;;;5.70;99.90;;;;;;6178595;28;20484;-60
2022/11/20 04:02:16;;;;;;;14.80;12.00;;;5.70;99.90;;;;;;6178929;28;20477;-60
2022/11/20 04:05:20;;;;;;;17.20;10.83;;;5.70;99.90;;;;;;6178288;28;20482;-60
2022/11/20 04:08:23;;;;;;;12.00;10.27;;;5.70;99.90;;;;;;6178771;28;20817;-60
2022/11/20 04:11:28;;;;;;;17.37;11.87;;;5.70;99.90;;;;;;6178490;28;20990;-60
2022/11/20 04:14:32;;;;;;;14.03;9.73;;;5.70;99.90;;;;;;6178310;28;20794;-60
2022/11/20 04:17:35;;;;;;;12.73;9.30;;;5.80;99.90;;;;;;6178058;28;20462;-60
2022/11/20 04:20:38;;;;;;;17.60;11.77;;;5.70;99.90;;;;;;6178272;28;20729;-60
2022/11/20 04:23:41;;;;;;;11.37;10.10;;;5.70;99.90;;;;;;6169563;28;20895;-60
2022/11/20 04:26:45;;;;;;;11.27;9.23;;;5.70;99.90;;;;;;6178163;28;20932;-60
2022/11/20 04:29:48;;;;;;;13.27;10.20;;;5.70;99.90;;;;;;6178149;28;20463;-60
2022/11/20 04:32:53;;;;;;;11.90;9.80;;;5.70;99.90;;;;;;6178241;28;20449;-60
2022/11/20 04:35:56;;;;;;;12.17;9.40;;;5.70;99.90;;;;;;6178028;28;20548;-60
2022/11/20 04:39:01;;;;;;;13.13;9.97;;;5.60;99.90;;;;;;6177946;28;21095;-59
2022/11/20 04:45:26;;;;;;;10.90;9.00;;;5.70;99.90;;;;;;6177847;28;20537;-60
2022/11/20 04:48:30;;;;;;;14.13;9.00;;;5.60;99.90;;;;;;6177874;28;20481;-60
2022/11/20 04:51:33;;;;;;;11.90;9.30;;;5.60;99.90;;;;;;6177741;28;20532;-60
2022/11/20 04:54:36;;;;;;;15.37;10.40;;;5.60;99.90;;;;;;6177974;28;20485;-60
2022/11/20 04:57:41;;;;;;;12.07;10.47;;;5.70;99.90;;;;;;6177734;28;20481;-60
2022/11/20 05:00:44;;;;;;;12.30;10.20;;;5.70;99.90;;;;;;6177433;28;20478;-60
2022/11/20 05:03:48;;;;;;;11.73;8.63;;;5.60;99.90;;;;;;6177558;28;20469;-60
2022/11/20 05:06:51;;;;;;;13.03;10.43;;;5.60;99.90;;;;;;6177351;28;20564;-60
2022/11/20 05:09:54;;;;;;;11.37;9.43;;;5.50;99.90;;;;;;6177553;28;20508;-60
2022/11/20 05:12:59;;;;;;;10.10;8.60;;;5.50;99.90;;;;;;6177056;28;20473;-60
2022/11/20 05:16:04;;;;;;;11.90;9.30;;;5.50;99.90;;;;;;6177166;28;20823;-60
2022/11/20 05:19:07;;;;;;;10.50;9.17;;;5.60;99.90;;;;;;6177212;28;20477;-60
2022/11/20 05:22:10;;;;;;;13.87;9.93;;;5.60;99.90;;;;;;6177119;28;20474;-60
2022/11/20 05:25:13;;;;;;;12.43;9.63;;;5.60;99.90;;;;;;6177009;28;20481;-60
2022/11/20 05:28:18;;;;;;;12.40;9.37;;;5.60;99.90;;;;;;6172881;28;20823;-60
2022/11/20 05:31:23;;;;;;;11.47;9.43;;;5.60;99.90;;;;;;6176625;28;20553;-60
2022/11/20 05:34:30;;;;;;;11.37;9.00;;;5.60;99.90;;;;;;6176746;28;20791;-60
2022/11/20 05:37:33;;;;;;;15.40;11.47;;;5.50;99.90;;;;;;6176534;28;20473;-60
2022/11/20 05:40:36;;;;;;;15.57;12.60;;;5.50;99.90;;;;;;6176130;28;20470;-60
2022/11/20 05:43:42;;;;;;;17.70;12.90;;;5.40;99.90;;;;;;6176686;28;20497;-60
2022/11/20 05:46:46;;;;;;;21.50;14.70;;;5.40;99.90;;;;;;6176758;28;20570;-60
2022/11/20 05:49:49;;;;;;;17.43;13.40;;;5.40;99.90;;;;;;6176652;28;20923;-60
2022/11/20 05:52:52;;;;;;;18.40;12.97;;;5.40;99.90;;;;;;6176417;28;20474;-60
2022/11/20 05:55:59;;;;;;;18.27;13.73;;;5.40;99.90;;;;;;6175907;28;20478;-60
2022/11/20 05:59:04;;;;;;;19.00;13.80;;;5.30;99.90;;;;;;6176509;28;20532;-63
2022/11/20 06:02:07;;;;;;;22.67;15.23;;;5.20;99.90;;;;;;6176701;28;20482;-63
2022/11/20 06:05:10;;;;;;;20.63;14.60;;;5.20;99.90;;;;;;6176188;28;20559;-63
2022/11/20 06:08:13;;;;;;;24.90;16.40;;;5.10;99.90;;;;;;6176559;28;20552;-63
2022/11/20 06:11:18;;;;;;;23.20;16.43;;;5.10;99.90;;;;;;6176258;28;20494;-63
2022/11/20 06:14:22;;;;;;;20.83;16.00;;;5.10;99.90;;;;;;6176353;28;20481;-63
2022/11/20 06:17:25;;;;;;;20.70;15.67;;;5.00;99.90;;;;;;6176474;28;20545;-63
2022/11/20 06:20:28;;;;;;;24.53;16.10;;;5.00;99.90;;;;;;6176299;28;20545;-63
2022/11/20 06:23:33;;;;;;;22.97;15.10;;;5.00;99.90;;;;;;6176216;28;20481;-63
2022/11/20 06:26:36;;;;;;;21.30;15.73;;;5.00;99.90;;;;;;6176049;28;20953;-63
2022/11/20 06:29:40;;;;;;;17.63;13.73;;;5.00;99.90;;;;;;6176545;28;20512;-63
2022/11/20 06:32:43;;;;;;;21.40;15.83;;;5.00;99.90;;;;;;6178449;28;20540;-63
2022/11/20 06:35:47;;;;;;;20.77;15.43;;;5.00;99.90;;;;;;6178745;28;20465;-63
2022/11/20 06:38:50;;;;;;;21.07;15.33;;;5.00;99.90;;;;;;6176969;28;20454;-63
2022/11/20 06:41:53;;;;;;;20.77;14.80;;;5.00;99.90;;;;;;6176457;28;20508;-63
2022/11/20 06:45:02;;;;;;;19.77;14.07;;;5.00;99.90;;;;;;6176410;28;20465;-63
2022/11/20 06:48:06;;;;;;;20.67;14.83;;;5.10;99.90;;;;;;6176829;28;20482;-65
2022/11/20 06:51:09;;;;;;;18.10;11.87;;;5.10;99.90;;;;;;6177546;28;20504;-63
2022/11/20 06:54:13;;;;;;;17.90;13.13;;;5.10;99.90;;;;;;6180934;28;20478;-63
2022/11/20 06:57:16;;;;;;;20.80;13.87;;;5.20;99.90;;;;;;6180573;28;20980;-63
2022/11/20 07:00:20;;;;;;;17.17;13.17;;;5.10;99.90;;;;;;6181146;28;20473;-64
2022/11/20 07:03:23;;;;;;;16.43;11.83;;;5.20;99.90;;;;;;6180221;28;20492;-63
2022/11/20 07:06:27;;;;;;;22.47;13.57;;;5.20;99.90;;;;;;6179701;28;20481;-63
2022/11/20 07:09:30;;;;;;;17.50;11.90;;;5.20;99.90;;;;;;6179917;28;20779;-63
2022/11/20 07:12:33;;;;;;;16.40;12.77;;;5.20;99.90;;;;;;6180004;28;20787;-63
2022/11/20 07:15:38;;;;;;;18.67;12.60;;;5.20;99.90;;;;;;6179966;28;20474;-64
2022/11/20 07:18:41;;;;;;;19.57;14.23;;;5.30;99.90;;;;;;6180083;28;20477;-64
2022/11/20 07:21:52;;;;;;;16.10;12.67;;;5.40;99.90;;;;;;6179849;28;20472;-63
2022/11/20 07:24:55;;;;;;;18.80;13.83;;;5.40;99.90;;;;;;6180231;28;20522;-64
2022/11/20 07:27:59;;;;;;;18.70;13.33;;;5.50;99.90;;;;;;6180001;28;20493;-63
2022/11/20 07:31:04;;;;;;;18.40;14.33;;;5.60;99.90;;;;;;6179720;28;20581;-64
2022/11/20 07:34:07;;;;;;;19.67;13.43;;;5.80;99.90;;;;;;6180003;28;20473;-63
2022/11/20 07:37:11;;;;;;;18.63;13.00;;;5.90;99.90;;;;;;6171088;28;20466;-64
2022/11/20 07:40:14;;;;;;;14.30;11.40;;;6.00;99.90;;;;;;6180320;28;20482;-64
2022/11/20 07:43:17;;;;;;;18.40;13.53;;;6.00;99.90;;;;;;6180046;28;20478;-64
2022/11/20 07:46:22;;;;;;;17.10;11.57;;;6.10;99.90;;;;;;6180079;28;20622;-64
2022/11/20 07:49:25;;;;;;;13.23;11.50;;;6.30;99.90;;;;;;6179983;28;20821;-64
2022/11/20 07:52:28;;;;;;;14.83;11.90;;;6.30;99.90;;;;;;6179788;28;20486;-64
2022/11/20 07:55:31;;;;;;;13.80;11.50;;;6.50;99.90;;;;;;6179813;28;20474;-64
2022/11/20 07:58:35;;;;;;;14.03;11.43;;;6.60;99.90;;;;;;6179456;28;20490;-64
2022/11/20 08:01:39;;;;;;;16.00;12.03;;;6.70;99.90;;;;;;6179202;28;20770;-63
2022/11/20 08:04:42;;;;;;;16.70;11.90;;;6.70;99.90;;;;;;6178054;28;20486;-63
2022/11/20 08:07:46;;;;;;;15.30;11.73;;;6.70;99.90;;;;;;6179188;28;20478;-63
2022/11/20 08:10:49;;;;;;;13.10;11.03;;;6.60;99.90;;;;;;6179258;28;20811;-63
2022/11/20 08:17:14;;;;;;;13.33;11.80;;;6.60;99.90;;;;;;6179092;28;20572;-63
2022/11/20 08:20:17;;;;;;;14.60;12.00;;;6.60;99.90;;;;;;6178879;28;20976;-63
2022/11/20 08:23:20;;;;;;;15.33;13.17;;;6.70;99.90;;;;;;6179128;28;20478;-62
2022/11/20 08:26:23;;;;;;;17.67;13.47;;;6.80;99.90;;;;;;6179158;28;20482;-63
2022/11/20 08:29:27;;;;;;;14.37;11.70;;;6.70;99.90;;;;;;6179112;28;20481;-63
2022/11/20 08:32:32;;;;;;;15.80;11.63;;;6.60;99.90;;;;;;6178852;28;20782;-63
2022/11/20 08:35:36;;;;;;;20.63;14.27;;;6.60;99.90;;;;;;6178761;28;20481;-62
2022/11/20 08:38:39;;;;;;;18.10;13.53;;;6.50;99.90;;;;;;6174503;28;20466;-63
2022/11/20 08:41:42;;;;;;;20.03;14.10;;;6.50;99.90;;;;;;6178748;28;20450;-63
2022/11/20 08:44:45;;;;;;;19.77;15.37;;;6.50;99.90;;;;;;6179114;28;20509;-63
2022/11/20 08:47:50;;;;;;;16.50;13.67;;;6.40;99.90;;;;;;6181591;28;20961;-63
2022/11/20 08:50:53;;;;;;;19.20;16.20;;;6.40;99.90;;;;;;6179867;28;20457;-63
2022/11/20 08:53:56;;;;;;;17.40;14.50;;;6.50;99.90;;;;;;6178231;28;20486;-63
2022/11/20 08:56:59;;;;;;;18.00;12.70;;;6.50;99.90;;;;;;6178572;28;20787;-64
2022/11/20 09:00:04;;;;;;;16.53;13.13;;;6.50;99.90;;;;;;6178507;28;20481;-65
2022/11/20 09:03:10;;;;;;;17.40;14.13;;;6.60;99.90;;;;;;6178302;28;20510;-64
2022/11/20 09:06:14;;;;;;;18.47;14.50;;;6.60;99.90;;;;;;6178282;28;20478;-64
2022/11/20 09:09:17;;;;;;;18.33;12.77;;;6.70;99.90;;;;;;6178408;28;20969;-64
2022/11/20 09:12:21;;;;;;;19.80;13.97;;;6.70;99.90;;;;;;6178300;28;20482;-64
2022/11/20 09:15:25;;;;;;;17.40;13.27;;;6.70;99.90;;;;;;6177505;28;20486;-63
2022/11/20 09:18:31;;;;;;;14.40;12.20;;;6.80;99.90;;;;;;6178039;28;20954;-63
2022/11/20 09:21:34;;;;;;;14.40;12.43;;;6.80;99.90;;;;;;6177376;28;20536;-63
2022/11/20 09:24:37;;;;;;;15.67;13.77;;;6.90;99.90;;;;;;6177610;28;20485;-64
2022/11/20 09:27:43;;;;;;;14.33;12.83;;;7.00;99.90;;;;;;6177185;28;20490;-64
2022/11/20 09:30:46;;;;;;;16.07;11.23;;;7.10;99.90;;;;;;6177306;28;21014;-64
2022/11/20 09:33:51;;;;;;;14.20;12.20;;;7.20;99.90;;;;;;6177023;28;20982;-64
2022/11/20 09:36:55;;;;;;;12.90;11.27;;;7.30;99.90;;;;;;6177278;28;20486;-64
2022/11/20 09:39:58;;;;;;;13.67;11.43;;;7.40;99.90;;;;;;6179159;28;20975;-63
2022/11/20 09:43:08;;;;;;;16.33;12.47;;;7.40;99.90;;;;;;6180671;28;20481;-63
2022/11/20 09:46:20;;;;;;;14.17;11.70;;;7.50;99.90;;;;;;6163727;28;20490;-63
2022/11/20 09:49:36;;;;;;;13.63;11.27;;;7.70;99.90;;;;;;6166027;28;20919;-63
2022/11/20 09:52:50;;;;;;;14.63;12.23;;;7.70;99.90;;;;;;6168571;28;20494;-63
2022/11/20 09:55:55;;;;;;;12.77;11.47;;;7.70;99.90;;;;;;6178435;28;20839;-63
2022/11/20 09:59:04;;;;;;;12.43;10.90;;;7.90;99.90;;;;;;6177009;28;20481;-64
2022/11/20 10:02:17;;;;;;;12.73;11.43;;;8.10;99.90;;;;;;6163874;28;20474;-63
2022/11/20 10:05:25;;;;;;;14.10;10.60;;;8.60;99.90;;;;;;6153157;28;21277;-63
2022/11/20 10:08:31;;;;;;;14.13;10.87;;;9.10;99.90;;;;;;6159930;28;20486;-63
2022/11/20 10:11:45;;;;;;;12.00;10.07;;;9.90;99.90;;;;;;6164346;28;20478;-63
2022/11/20 10:15:04;;;;;;;10.90;9.67;;;11.50;99.90;;;;;;6155953;28;20494;-63
2022/11/20 10:18:22;;;;;;;12.50;10.43;;;14.70;99.90;;;;;;6191013;28;20473;-64
2022/11/20 10:21:36;;;;;;;11.27;10.13;;;16.10;94.00;;;;;;6188025;28;20473;-63
2022/11/20 10:25:03;;;;;;;10.00;9.10;;;16.60;91.20;;;;;;6189722;28;20480;-63
2022/11/20 10:28:28;;;;;;;13.77;10.57;;;15.90;90.10;;;;;;6191997;28;20466;-64
2022/11/20 10:31:35;;;;;;;11.70;10.60;;;14.90;91.40;;;;;;6184131;28;20840;-63
2022/11/20 10:34:47;;;;;;;10.43;9.40;;;14.70;91.70;;;;;;6192112;28;20477;-63
2022/11/20 10:37:57;;;;;;;12.90;11.47;;;14.40;91.70;;;;;;6194176;28;20481;-63
2022/11/20 10:47:40;;;;;;;13.37;11.30;;;15.30;90.20;;;;;;6182969;28;20461;-64
2022/11/20 10:50:54;;;;;;;12.90;11.50;;;15.70;88.50;;;;;;6186488;28;20774;-64
2022/11/20 10:54:08;;;;;;;10.73;9.73;;;15.70;87.00;;;;;;6180971;28;20485;-64
2022/11/20 10:57:26;;;;;;;16.30;13.17;;;15.30;88.50;;;;;;6181142;28;20473;-64
2022/11/20 11:00:32;;;;;;;13.23;11.83;;;15.20;89.60;;;;;;6184463;28;20470;-63
2022/11/20 11:03:35;;;;;;;12.50;11.20;;;14.60;89.70;;;;;;6185732;28;20481;-62
2022/11/20 11:06:44;;;;;;;14.23;12.83;;;14.40;89.70;;;;;;6181002;28;20922;-63
2022/11/20 11:09:51;;;;;;;14.07;12.60;;;14.00;90.80;;;;;;6180607;28;20492;-64
2022/11/20 11:12:54;;;;;;;16.97;15.37;;;13.70;91.80;;;;;;6180860;28;20544;-64
2022/11/20 11:15:58;;;;;;;17.97;15.53;;;13.30;92.70;;;;;;6180536;28;20996;-64
2022/11/20 11:19:05;;;;;;;26.47;21.60;;;12.90;93.60;;;;;;6180461;28;20469;-64
2022/11/20 11:22:17;;;;;;;17.80;16.00;;;12.70;94.30;;;;;;6180640;28;20487;-64
2022/11/20 11:25:28;;;;;;;27.00;21.23;;;12.20;95.50;;;;;;6180477;28;20556;-65
2022/11/20 11:28:32;;;;;;;28.00;23.80;;;12.40;96.10;;;;;;6180274;28;20481;-63
2022/11/20 11:31:36;;;;;;;27.03;22.00;;;12.50;96.40;;;;;;6180340;28;20484;-64
2022/11/20 11:34:40;;;;;;;31.50;24.90;;;12.80;95.50;;;;;;6179975;28;20473;-63
2022/11/20 11:37:43;;;;;;;24.20;18.70;;;13.80;95.30;;;;;;6178484;28;20480;-63
2022/11/20 11:40:48;;;;;;;17.60;15.77;;;16.00;91.40;;;;;;6180031;28;20972;-63
2022/11/20 11:47:23;;;;;;;17.10;15.40;;;17.20;87.90;;;;;;6180087;28;20492;-63
2022/11/20 11:50:27;;;;;;;14.17;12.70;;;21.80;77.50;;;;;;6179774;28;20867;-65
2022/11/20 11:53:31;;;;;;;13.10;11.80;;;25.50;57.50;;;;;;6175501;28;20643;-64
2022/11/20 11:56:36;;;;;;;14.30;13.10;;;26.10;47.80;;;;;;6179683;28;20230;-64
2022/11/20 11:59:50;;;;;;;14.93;13.63;;;28.00;45.00;;;;;;6179674;28;20217;-65
2022/11/20 12:03:05;;;;;;;14.03;12.83;;;30.80;38.70;;;;;;6179531;28;20210;-64
2022/11/20 12:06:13;;;;;;;12.67;11.57;;;32.90;32.40;;;;;;6178556;28;20234;-64
2022/11/20 12:09:19;;;;;;;15.23;14.02;;;34.20;28.70;;;;;;6187248;28;20221;-64
2022/11/20 12:12:29;;;;;;;12.77;11.70;;;34.70;27.20;;;;;;6191164;28;20657;-65
2022/11/20 12:15:35;;;;;;;13.68;12.57;;;35.50;25.60;;;;;;6179909;28;20234;-65
2022/11/20 12:18:40;;;;;;;12.43;11.30;;;34.50;25.60;;;;;;6179170;28;20229;-65
2022/11/20 12:21:55;;;;;;;12.55;11.60;;;34.90;25.10;;;;;;6198161;28;20225;-65
2022/11/20 12:25:09;;;;;;;13.40;12.27;;;35.40;24.50;;;;;;6202393;28;20311;-62
2022/11/20 12:28:31;;;;;;;9.98;9.15;;;36.50;23.70;;;;;;6200314;28;20374;-63
2022/11/20 12:31:54;;;;;;;8.95;8.25;;;36.90;22.80;;;;;;6187603;28;20716;-63
2022/11/20 12:35:04;;;;;;;8.38;7.68;;;37.20;22.10;;;;;;6202007;28;20245;-64
2022/11/20 12:38:47;;;;;;;8.15;7.30;;;37.50;21.40;;;;;;6202077;28;20236;-63
2022/11/20 12:46:20;;;;;;;7.97;7.38;;;36.90;21.40;;;;;;6201688;28;20258;-63
2022/11/20 12:49:38;;;;;;;7.75;7.15;;;36.20;21.30;;;;;;6186946;28;20234;-63
2022/11/20 12:52:48;;;;;;;7.50;6.90;;;35.90;21.30;;;;;;6201895;28;20229;-63
2022/11/20 12:56:02;;;;;;;7.75;7.13;;;35.60;21.70;;;;;;6201710;28;20243;-63
2022/11/20 12:59:23;;;;;;;6.85;6.30;;;36.00;21.50;;;;;;6201697;28;20316;-64
2022/11/20 13:02:34;;;;;;;6.78;6.18;;;36.40;21.00;;;;;;6201397;28;20719;-62
2022/11/20 13:05:51;;;;;;;5.90;5.40;;;35.20;21.40;;;;;;6201351;28;20311;-64
2022/11/20 13:08:57;;;;;;;6.60;6.10;;;35.00;22.10;;;;;;6198672;28;20325;-63
2022/11/20 13:12:06;;;;;;;6.10;5.60;;;34.80;21.50;;;;;;6179467;28;20240;-63
2022/11/20 13:15:24;;;;;;;6.53;5.93;;;32.20;23.30;;;;;;6195454;28;20233;-63
2022/11/20 13:18:41;;;;;;;5.10;4.70;;;29.50;25.50;;;;;;6175812;28;20230;-63
2022/11/20 13:21:49;;;;;;;6.30;5.40;;;27.00;28.10;;;;;;6176266;28;20714;-62
2022/11/20 13:24:53;;;;;;;4.67;4.27;;;25.80;30.40;;;;;;6176518;28;20229;-62
2022/11/20 13:27:58;;;;;;;5.07;4.67;;;27.10;29.50;;;;;;6169137;28;20288;-63
2022/11/20 13:31:02;;;;;;;5.03;4.63;;;28.90;27.80;;;;;;6178109;28;20257;-63
2022/11/20 13:34:08;;;;;;;4.57;4.00;;;30.10;26.40;;;;;;6176691;28;20235;-63
2022/11/20 13:37:29;;;;;;;4.30;3.90;;;31.30;25.80;;;;;;6176788;28;20237;-63
2022/11/20 13:40:34;;;;;;;5.27;4.80;;;31.00;24.80;;;;;;6176861;28;20245;-63
2022/11/20 13:43:41;;;;;;;5.40;4.90;;;31.00;25.00;;;;;;6176783;28;20577;-62
2022/11/20 13:46:47;;;;;;;4.80;4.40;;;30.50;25.40;;;;;;6176274;28;20234;-63
2022/11/20 13:49:54;;;;;;;5.80;5.40;;;30.30;25.70;;;;;;6178343;28;20317;-63
2022/11/20 13:53:07;;;;;;;5.10;4.70;;;30.30;25.80;;;;;;6177232;28;20236;-63
2022/11/20 13:56:17;;;;;;;5.30;4.80;;;30.10;25.70;;;;;;6176929;28;20237;-63
2022/11/20 13:59:40;;;;;;;5.07;4.67;;;29.20;26.70;;;;;;6176966;28;20249;-63
2022/11/20 14:02:45;;;;;;;5.47;5.03;;;27.80;28.10;;;;;;6175990;28;20292;-63
2022/11/20 14:05:52;;;;;;;4.47;4.10;;;26.20;29.80;;;;;;6176536;28;20256;-63
2022/11/20 14:09:00;;;;;;;5.47;4.90;;;24.40;31.90;;;;;;6176154;28;20229;-63
2022/11/20 14:12:15;;;;;;;5.90;5.40;;;22.60;33.90;;;;;;6176656;28;20291;-62
2022/11/20 14:15:28;;;;;;;4.70;4.30;;;21.00;36.50;;;;;;6176828;28;20246;-62
2022/11/20 14:18:32;;;;;;;4.80;4.13;;;19.40;39.70;;;;;;6176392;28;20234;-63
2022/11/20 14:21:36;;;;;;;5.90;5.40;;;17.90;42.30;;;;;;6175936;28;20674;-63
2022/11/20 14:24:41;;;;;;;5.90;5.40;;;16.80;45.10;;;;;;6175689;28;20474;-63
2022/11/20 14:27:51;;;;;;;5.67;5.17;;;15.90;47.50;;;;;;6174419;28;21024;-63
2022/11/20 14:30:57;;;;;;;6.17;5.47;;;15.20;49.10;;;;;;6176330;28;20954;-62
2022/11/20 14:34:04;;;;;;;4.40;4.00;;;14.50;52.30;;;;;;6175998;28;20485;-62
2022/11/20 14:37:15;;;;;;;5.30;4.87;;;13.80;53.80;;;;;;6176045;28;20474;-62
2022/11/20 14:40:28;;;;;;;5.67;5.20;;;13.30;56.20;;;;;;6176304;28;20966;-62
2022/11/20 14:43:35;;;;;;;6.57;4.97;;;12.70;59.40;;;;;;6175949;28;20481;-62
2022/11/20 14:46:39;;;;;;;5.63;5.13;;;12.30;62.00;;;;;;6176422;28;20536;-62
2022/11/20 14:49:45;;;;;;;6.37;5.73;;;12.00;65.40;;;;;;6176497;28;20500;-62
2022/11/20 14:52:54;;;;;;;8.60;5.50;;;11.50;71.80;;;;;;6176105;28;20484;-62
2022/11/20 14:56:02;;;;;;;6.43;5.83;;;11.30;75.90;;;;;;6175814;28;20496;-62
2022/11/20 14:59:08;;;;;;;5.90;5.30;;;10.90;82.10;;;;;;6176395;28;20484;-60
2022/11/20 15:02:13;;;;;;;6.17;5.63;;;10.50;88.60;;;;;;6176275;28;20478;-62
2022/11/20 15:05:20;;;;;;;7.73;6.97;;;10.10;92.30;;;;;;6166818;28;20490;-61
2022/11/20 15:08:27;;;;;;;10.80;9.80;;;9.70;96.20;;;;;;6176047;28;20801;-60
2022/11/20 15:11:36;;;;;;;16.83;15.50;;;9.60;97.90;;;;;;6175951;28;20846;-61
2022/11/20 15:14:41;;;;;;;15.77;14.20;;;9.60;99.20;;;;;;6180485;28;20510;-61
2022/11/20 15:17:45;;;;;;;11.03;9.93;;;9.50;99.90;;;;;;6181383;28;20797;-61
2022/11/20 15:20:50;;;;;;;8.40;7.07;;;9.40;99.90;;;;;;6182345;28;20449;-61
2022/11/20 15:23:54;;;;;;;8.20;7.40;;;9.20;99.90;;;;;;6181555;28;20475;-61
2022/11/20 15:26:59;;;;;;;9.60;8.70;;;8.90;99.90;;;;;;6180728;28;20442;-61
2022/11/20 15:30:13;;;;;;;8.03;7.20;;;8.80;99.90;;;;;;6179723;28;20964;-62
2022/11/20 15:33:18;;;;;;;7.77;7.07;;;8.60;99.90;;;;;;6179406;28;20480;-60
2022/11/20 15:36:22;;;;;;;8.47;7.60;;;8.40;99.90;;;;;;6179821;28;20497;-61
2022/11/20 15:39:26;;;;;;;11.20;10.20;;;8.40;99.90;;;;;;6179863;28;20486;-63
2022/11/20 15:42:32;;;;;;;9.17;8.37;;;8.20;99.90;;;;;;6179288;28;20801;-62
2022/11/20 15:45:41;;;;;;;9.37;8.30;;;8.00;99.90;;;;;;6179072;28;20798;-61
2022/11/20 15:48:46;;;;;;;10.30;9.37;;;7.90;99.90;;;;;;6177817;28;21017;-61
2022/11/20 15:51:52;;;;;;;9.83;9.00;;;7.80;99.90;;;;;;6178968;28;20831;-61
2022/11/20 15:54:57;;;;;;;11.50;9.53;;;7.70;99.90;;;;;;6178675;28;20490;-61
2022/11/20 15:58:04;;;;;;;10.33;9.30;;;7.60;99.90;;;;;;6179192;28;20474;-61
2022/11/20 16:01:12;;;;;;;11.70;10.50;;;7.50;99.90;;;;;;6178980;28;20474;-62
2022/11/20 16:04:18;;;;;;;12.53;11.30;;;7.40;99.90;;;;;;6178641;28;20561;-61
2022/11/20 16:07:22;;;;;;;14.43;12.93;;;7.40;99.90;;;;;;6169989;28;20532;-62
2022/11/20 16:10:26;;;;;;;13.53;12.23;;;7.30;99.90;;;;;;6178859;28;20559;-61
2022/11/20 16:16:55;;;;;;;12.70;11.40;;;7.40;99.90;;;;;;6178691;28;20486;-61
2022/11/20 16:20:00;;;;;;;11.93;10.17;;;7.40;99.90;;;;;;6178602;28;20474;-61
2022/11/20 16:23:07;;;;;;;14.87;12.97;;;7.40;99.90;;;;;;6177269;28;20630;-62
2022/11/20 16:26:13;;;;;;;14.27;12.87;;;7.40;99.90;;;;;;6177846;28;20481;-62